createdAt,value
2023-05-08T00:00:46.763Z,4.86
2023-05-08T00:03:18.091Z,4.88
2023-05-08T00:05:48.069Z,4.94
2023-05-08T00:08:17.842Z,4.90
2023-05-08T00:10:48.528Z,4.88
2023-05-08T00:13:18.529Z,4.79
2023-05-08T00:15:48.387Z,4.71
2023-05-08T00:18:18.112Z,4.66
2023-05-08T00:21:08.249Z,4.61
2023-05-08T00:23:41.510Z,4.70
2023-05-08T00:26:13.217Z,4.71
2023-05-08T00:28:45.649Z,4.72
2023-05-08T00:31:15.833Z,4.72
2023-05-08T00:33:45.781Z,4.70
2023-05-08T00:36:15.997Z,4.60
2023-05-08T00:38:45.938Z,4.56
2023-05-08T00:41:16.307Z,4.58
2023-05-08T00:43:46.278Z,4.58
2023-05-08T00:46:16.152Z,4.60
2023-05-08T00:48:47.583Z,4.61
2023-05-08T00:51:19.667Z,4.60
2023-05-08T00:53:50.315Z,4.56
2023-05-08T00:56:21.336Z,4.57
2023-05-08T00:58:51.859Z,4.61
2023-05-08T01:01:23.311Z,4.58
2023-05-08T01:03:53.820Z,4.55
2023-05-08T01:06:23.710Z,4.49
2023-05-08T01:08:53.730Z,4.42
2023-05-08T01:11:29.688Z,4.44
2023-05-08T01:14:12.847Z,4.40
2023-05-08T01:16:47.071Z,4.28
2023-05-08T01:19:42.754Z,4.30
2023-05-08T01:22:21.824Z,4.25
2023-05-08T01:25:18.472Z,4.30
2023-05-08T01:28:14.106Z,4.29
2023-05-08T01:31:03.812Z,4.22
2023-05-08T01:33:43.677Z,4.18
2023-05-08T01:36:25.447Z,4.18
2023-05-08T01:39:07.556Z,4.23
2023-05-08T01:41:39.712Z,4.24
2023-05-08T01:44:16.144Z,4.19
2023-05-08T01:46:50.820Z,4.23
2023-05-08T01:49:25.840Z,4.22
2023-05-08T01:52:00.891Z,4.23
2023-05-08T01:54:39.823Z,4.19
2023-05-08T01:57:17.664Z,4.21
2023-05-08T01:59:50.143Z,4.20
2023-05-08T02:02:21.227Z,4.22
2023-05-08T02:04:52.657Z,4.17
2023-05-08T02:07:25.052Z,4.15
2023-05-08T02:09:58.439Z,4.15
2023-05-08T02:12:30.202Z,4.13
2023-05-08T02:15:01.657Z,4.10
2023-05-08T02:17:32.724Z,4.05
2023-05-08T02:20:04.196Z,4.06
2023-05-08T02:22:35.372Z,4.01
2023-05-08T02:25:07.000Z,4.04
2023-05-08T02:27:37.777Z,4.07
2023-05-08T02:30:11.260Z,4.03
2023-05-08T02:32:44.456Z,3.95
2023-05-08T02:35:17.320Z,3.89
2023-05-08T02:37:49.833Z,3.96
2023-05-08T02:40:25.587Z,3.99
2023-05-08T02:42:56.177Z,4.02
2023-05-08T02:45:31.631Z,4.02
2023-05-08T02:48:11.562Z,4.07
2023-05-08T02:50:47.951Z,4.04
2023-05-08T02:53:25.985Z,4.07
2023-05-08T02:56:02.982Z,4.05
2023-05-08T02:58:38.816Z,3.97
2023-05-08T03:01:14.754Z,3.97
2023-05-08T03:03:47.031Z,3.90
2023-05-08T03:06:22.152Z,3.88
2023-05-08T03:08:56.486Z,3.88
2023-05-08T03:11:35.649Z,3.85
2023-05-08T03:14:10.677Z,3.86
2023-05-08T03:16:43.620Z,3.84
2023-05-08T03:19:16.185Z,3.89
2023-05-08T03:21:47.801Z,3.83
2023-05-08T03:24:20.848Z,3.77
2023-05-08T03:26:51.293Z,3.70
2023-05-08T03:29:22.392Z,3.76
2023-05-08T03:31:54.064Z,3.78
2023-05-08T03:34:25.527Z,3.74
2023-05-08T03:36:56.079Z,3.78
2023-05-08T03:39:29.365Z,3.76
2023-05-08T03:41:59.649Z,3.75
2023-05-08T03:44:32.633Z,3.63
2023-05-08T03:47:04.629Z,3.48
2023-05-08T03:49:35.574Z,3.46
2023-05-08T03:52:06.191Z,3.51
2023-05-08T03:54:36.205Z,3.49
2023-05-08T03:57:06.759Z,3.45
2023-05-08T03:59:47.539Z,3.40
2023-05-08T04:02:26.399Z,3.46
2023-05-08T04:05:06.141Z,3.44
2023-05-08T04:07:42.333Z,3.39
2023-05-08T04:10:21.174Z,3.40
2023-05-08T04:12:59.096Z,3.41
2023-05-08T04:15:33.284Z,3.46
2023-05-08T04:18:07.403Z,3.46
2023-05-08T04:20:41.637Z,3.44
2023-05-08T04:23:17.375Z,3.46
2023-05-08T04:25:49.106Z,3.46
2023-05-08T04:28:19.951Z,3.42
2023-05-08T04:30:51.626Z,3.40
2023-05-08T04:33:22.132Z,3.37
2023-05-08T04:35:52.757Z,3.50
2023-05-08T04:38:22.889Z,3.56
2023-05-08T04:40:53.328Z,3.60
2023-05-08T04:43:23.833Z,3.59
2023-05-08T04:45:54.268Z,3.66
2023-05-08T04:48:24.625Z,3.65
2023-05-08T04:50:54.510Z,3.66
2023-05-08T04:53:24.802Z,3.72
2023-05-08T04:55:55.286Z,3.72
2023-05-08T04:58:25.718Z,3.76
2023-05-08T05:00:56.753Z,3.80
2023-05-08T05:03:27.199Z,3.88
2023-05-08T05:06:00.446Z,3.98
2023-05-08T05:08:32.636Z,4.05
2023-05-08T05:11:02.557Z,4.01
2023-05-08T05:13:32.550Z,4.02
2023-05-08T05:16:02.489Z,4.08
2023-05-08T05:18:35.958Z,4.05
2023-05-08T05:21:05.495Z,4.12
2023-05-08T05:23:35.783Z,4.09
2023-05-08T05:26:08.672Z,4.08
2023-05-08T05:28:38.805Z,4.02
2023-05-08T05:31:09.372Z,3.96
2023-05-08T05:33:39.753Z,4.00
2023-05-08T05:36:10.163Z,3.97
2023-05-08T05:38:40.113Z,4.02
2023-05-08T05:41:10.477Z,4.07
2023-05-08T05:43:40.490Z,4.18
2023-05-08T05:46:10.961Z,4.18
2023-05-08T05:48:41.788Z,4.15
2023-05-08T05:51:12.928Z,4.14
2023-05-08T05:53:43.435Z,4.12
2023-05-08T05:56:13.549Z,4.09
2023-05-08T05:58:45.138Z,4.09
2023-05-08T06:01:16.959Z,4.09
2023-05-08T06:03:47.053Z,4.00
2023-05-08T06:06:17.199Z,4.05
2023-05-08T06:08:48.190Z,4.15
2023-05-08T06:11:18.459Z,4.24
2023-05-08T06:13:49.824Z,4.21
2023-05-08T06:16:22.986Z,4.23
2023-05-08T06:18:53.222Z,4.22
2023-05-08T06:21:23.082Z,4.47
2023-05-08T06:23:56.278Z,4.51
2023-05-08T06:26:29.582Z,4.68
2023-05-08T06:28:59.692Z,5.03
2023-05-08T06:31:30.005Z,5.18
2023-05-08T06:34:00.548Z,5.44
2023-05-08T06:36:33.271Z,5.59
2023-05-08T06:39:04.393Z,5.50
2023-05-08T06:41:34.500Z,5.64
2023-05-08T06:44:04.650Z,5.74
2023-05-08T06:46:34.532Z,5.90
2023-05-08T06:49:04.701Z,5.92
2023-05-08T06:51:35.340Z,5.86
2023-05-08T06:54:11.190Z,6.03
2023-05-08T06:56:41.145Z,6.22
2023-05-08T06:59:12.781Z,6.19
2023-05-08T07:01:42.917Z,6.09
2023-05-08T07:04:13.794Z,5.96
2023-05-08T07:06:43.784Z,5.96
2023-05-08T07:09:13.881Z,5.84
2023-05-08T07:11:44.252Z,6.03
2023-05-08T07:14:14.703Z,6.11
2023-05-08T07:16:44.818Z,6.05
2023-05-08T07:19:15.071Z,6.03
2023-05-08T07:21:46.246Z,5.94
2023-05-08T07:24:16.903Z,5.97
2023-05-08T07:26:47.201Z,6.05
2023-05-08T07:29:17.649Z,6.11
2023-05-08T07:31:51.376Z,6.31
2023-05-08T07:34:20.268Z,6.20
2023-05-08T07:36:50.260Z,6.34
2023-05-08T07:39:20.513Z,6.47
2023-05-08T07:41:50.706Z,6.69
2023-05-08T07:44:21.010Z,7.23
2023-05-08T07:46:51.373Z,7.42
2023-05-08T07:49:21.641Z,7.17
2023-05-08T07:51:52.343Z,7.61
2023-05-08T07:54:22.628Z,7.83
2023-05-08T07:56:52.617Z,7.78
2023-05-08T07:59:22.936Z,7.75
2023-05-08T08:01:52.986Z,7.84
2023-05-08T08:04:24.030Z,7.93
2023-05-08T08:06:54.162Z,8.13
2023-05-08T08:09:24.315Z,8.45
2023-05-08T08:11:57.671Z,8.72
2023-05-08T08:14:29.034Z,8.99
2023-05-08T08:16:59.191Z,8.93
2023-05-08T08:19:29.363Z,8.87
2023-05-08T08:21:59.359Z,9.06
2023-05-08T08:24:30.048Z,9.11
2023-05-08T08:27:00.157Z,9.21
2023-05-08T08:29:30.591Z,9.42
2023-05-08T08:32:01.170Z,9.01
2023-05-08T08:34:33.386Z,8.77
2023-05-08T08:37:05.953Z,8.51
2023-05-08T08:39:36.178Z,8.39
2023-05-08T08:42:08.539Z,8.12
2023-05-08T08:44:40.043Z,8.14
2023-05-08T08:47:12.859Z,8.13
2023-05-08T08:49:48.608Z,8.12
2023-05-08T08:52:31.425Z,8.04
2023-05-08T08:55:03.071Z,8.06
2023-05-08T08:57:37.477Z,8.27
2023-05-08T09:00:08.020Z,8.53
2023-05-08T09:02:38.743Z,8.25
2023-05-08T09:05:13.023Z,8.16
2023-05-08T09:07:44.334Z,8.17
2023-05-08T09:10:15.602Z,8.14
2023-05-08T09:12:45.708Z,8.09
2023-05-08T09:15:16.321Z,8.21
2023-05-08T09:17:46.653Z,8.36
2023-05-08T09:20:17.350Z,8.39
2023-05-08T09:22:49.151Z,8.50
2023-05-08T09:25:19.247Z,8.26
2023-05-08T09:27:49.522Z,8.13
2023-05-08T09:30:20.038Z,8.21
2023-05-08T09:32:50.752Z,8.12
2023-05-08T09:35:20.847Z,8.09
2023-05-08T09:37:50.966Z,7.99
2023-05-08T09:40:22.936Z,7.94
2023-05-08T09:42:53.163Z,7.78
2023-05-08T09:45:30.948Z,7.86
2023-05-08T09:48:01.568Z,7.82
2023-05-08T09:50:32.830Z,7.87
2023-05-08T09:53:03.050Z,7.83
2023-05-08T09:55:48.309Z,8.05
2023-05-08T09:58:18.650Z,8.10
2023-05-08T10:00:48.814Z,8.18
2023-05-08T10:03:20.026Z,8.15
2023-05-08T10:05:50.311Z,8.08
2023-05-08T10:08:22.618Z,8.26
2023-05-08T10:10:52.902Z,8.67
2023-05-08T10:13:23.782Z,9.13
2023-05-08T10:15:57.580Z,9.23
2023-05-08T10:18:35.749Z,9.12
2023-05-08T10:21:08.407Z,9.15
2023-05-08T10:23:40.562Z,9.22
2023-05-08T10:26:14.732Z,9.36
2023-05-08T10:28:50.811Z,9.42
2023-05-08T10:31:22.492Z,9.44
2023-05-08T10:33:55.227Z,9.16
2023-05-08T10:36:30.354Z,9.12
2023-05-08T10:39:07.285Z,9.10
2023-05-08T10:41:39.004Z,9.01
2023-05-08T10:44:10.554Z,8.98
2023-05-08T10:46:49.946Z,9.05
2023-05-08T10:49:29.155Z,9.31
2023-05-08T10:52:12.388Z,9.19
2023-05-08T10:55:05.876Z,9.16
2023-05-08T10:57:35.972Z,9.07
2023-05-08T11:00:08.364Z,9.12
2023-05-08T11:02:38.647Z,9.13
2023-05-08T11:05:18.333Z,9.16
2023-05-08T11:08:14.793Z,9.37
2023-05-08T11:10:49.072Z,9.57
2023-05-08T11:13:20.290Z,9.52
2023-05-08T11:15:55.157Z,9.57
2023-05-08T11:18:28.077Z,9.70
2023-05-08T11:21:04.147Z,9.62
2023-05-08T11:23:35.299Z,9.74
2023-05-08T11:26:06.989Z,9.83
2023-05-08T11:28:39.862Z,10.04
2023-05-08T11:31:10.660Z,10.28
2023-05-08T11:33:40.914Z,10.48
2023-05-08T11:36:18.985Z,10.62
2023-05-08T11:39:08.017Z,10.59
2023-05-08T11:41:38.943Z,10.24
2023-05-08T11:44:21.118Z,10.19
2023-05-08T11:46:55.872Z,10.22
2023-05-08T11:49:29.832Z,10.26
2023-05-08T11:52:01.132Z,10.32
2023-05-08T11:54:32.611Z,10.44
2023-05-08T11:57:03.159Z,10.51
2023-05-08T11:59:37.737Z,10.55
2023-05-08T12:02:09.760Z,10.50
2023-05-08T12:04:47.297Z,10.34
2023-05-08T12:07:18.528Z,10.29
2023-05-08T12:09:49.021Z,10.31
2023-05-08T12:12:19.469Z,10.25
2023-05-08T12:14:52.228Z,10.50
2023-05-08T12:17:22.974Z,10.59
2023-05-08T12:19:58.879Z,10.63
2023-05-08T12:22:32.094Z,10.46
2023-05-08T12:25:03.543Z,10.37
2023-05-08T12:27:34.293Z,10.45
2023-05-08T12:30:09.021Z,10.81
2023-05-08T12:32:40.762Z,10.90
2023-05-08T12:35:13.007Z,10.89
2023-05-08T12:37:45.481Z,11.25
2023-05-08T12:40:27.826Z,11.15
2023-05-08T12:43:00.753Z,10.86
2023-05-08T12:45:33.338Z,11.00
2023-05-08T12:48:06.173Z,11.14
2023-05-08T12:50:37.917Z,11.00
2023-05-08T12:53:09.833Z,10.81
2023-05-08T12:55:41.244Z,10.69
2023-05-08T12:58:15.073Z,10.73
2023-05-08T13:00:46.937Z,10.43
2023-05-08T13:03:24.948Z,10.30
2023-05-08T13:05:56.500Z,10.28
2023-05-08T13:08:33.389Z,10.24
2023-05-08T13:11:05.041Z,10.31
2023-05-08T13:13:37.294Z,10.23
2023-05-08T13:16:08.311Z,10.35
2023-05-08T13:18:38.736Z,10.59
2023-05-08T13:21:08.764Z,10.71
2023-05-08T13:23:50.646Z,10.66
2023-05-08T13:26:21.705Z,10.65
2023-05-08T13:28:54.559Z,10.57
2023-05-08T13:31:26.147Z,10.31
2023-05-08T13:33:57.222Z,10.05
2023-05-08T13:36:27.093Z,10.04
2023-05-08T13:38:57.205Z,10.05
2023-05-08T13:41:27.390Z,10.08
2023-05-08T13:43:57.319Z,10.19
2023-05-08T13:46:27.658Z,10.26
2023-05-08T13:48:57.693Z,10.28
2023-05-08T13:51:27.792Z,10.09
2023-05-08T13:53:57.680Z,10.21
2023-05-08T13:56:28.068Z,10.34
2023-05-08T13:58:58.471Z,10.38
2023-05-08T14:01:28.495Z,10.81
2023-05-08T14:03:58.788Z,10.95
2023-05-08T14:06:28.922Z,10.77
2023-05-08T14:08:58.847Z,10.66
2023-05-08T14:11:29.389Z,10.55
2023-05-08T14:13:59.379Z,10.46
2023-05-08T14:16:30.157Z,10.61
2023-05-08T14:19:00.356Z,10.46
2023-05-08T14:21:31.310Z,10.51
2023-05-08T14:24:01.708Z,10.44
2023-05-08T14:26:32.613Z,10.47
2023-05-08T14:29:02.662Z,10.58
2023-05-08T14:31:33.211Z,10.67
2023-05-08T14:34:03.398Z,10.73
2023-05-08T14:36:33.324Z,10.66
2023-05-08T14:39:03.678Z,10.57
2023-05-08T14:41:33.735Z,10.46
2023-05-08T14:44:03.769Z,10.31
2023-05-08T14:46:33.839Z,10.36
2023-05-08T14:49:03.873Z,10.35
2023-05-08T14:51:33.889Z,10.38
2023-05-08T14:54:04.263Z,10.44
2023-05-08T14:59:24.640Z,10.18
2023-05-08T15:01:54.786Z,10.24
2023-05-08T15:04:25.188Z,10.23
2023-05-08T15:06:55.340Z,10.26
2023-05-08T15:09:25.309Z,10.24
2023-05-08T15:11:56.027Z,10.28
2023-05-08T15:14:26.811Z,10.43
2023-05-08T15:16:57.248Z,10.52
2023-05-08T15:19:27.301Z,10.68
2023-05-08T15:21:57.102Z,10.95
2023-05-08T15:24:27.294Z,11.00
2023-05-08T15:26:57.273Z,11.08
2023-05-08T15:29:27.598Z,11.01
2023-05-08T15:31:57.693Z,11.02
2023-05-08T15:34:32.374Z,10.80
2023-05-08T15:37:03.081Z,10.66
2023-05-08T15:39:35.460Z,10.81
2023-05-08T15:42:06.461Z,11.00
2023-05-08T15:47:09.534Z,10.91
2023-05-08T15:49:39.412Z,10.89
2023-05-08T15:52:09.633Z,10.94
2023-05-08T15:54:39.720Z,10.90
2023-05-08T15:57:09.852Z,10.94
2023-05-08T15:59:39.956Z,10.99
2023-05-08T16:02:10.797Z,10.97
2023-05-08T16:04:40.883Z,10.90
2023-05-08T16:07:10.939Z,10.85
2023-05-08T16:09:41.764Z,10.72
2023-05-08T16:12:11.733Z,10.57
2023-05-08T16:14:41.733Z,10.64
2023-05-08T16:17:11.627Z,10.67
2023-05-08T16:19:41.804Z,10.66
2023-05-08T16:22:12.103Z,10.63
2023-05-08T16:24:42.535Z,10.57
2023-05-08T16:27:12.675Z,10.47
2023-05-08T16:29:43.111Z,10.40
2023-05-08T16:32:13.315Z,10.48
2023-05-08T16:34:44.454Z,10.49
2023-05-08T16:37:14.428Z,10.44
2023-05-08T16:39:44.374Z,10.44
2023-05-08T16:42:14.457Z,10.43
2023-05-08T16:44:44.591Z,10.53
2023-05-08T16:47:14.637Z,10.60
2023-05-08T16:49:45.229Z,10.59
2023-05-08T16:52:15.097Z,10.59
2023-05-08T16:54:45.261Z,10.48
2023-05-08T16:57:15.693Z,10.60
2023-05-08T16:59:47.171Z,10.63
2023-05-08T17:02:19.049Z,10.50
2023-05-08T17:04:50.052Z,10.45
2023-05-08T17:07:20.740Z,10.48
2023-05-08T17:09:55.538Z,10.48
2023-05-08T17:12:25.732Z,10.42
2023-05-08T17:14:56.673Z,10.41
2023-05-08T17:17:27.328Z,10.40
2023-05-08T17:19:59.474Z,10.25
2023-05-08T17:22:29.633Z,10.23
2023-05-08T17:24:59.471Z,10.16
2023-05-08T17:27:29.719Z,10.11
2023-05-08T17:29:59.868Z,10.01
2023-05-08T17:32:30.212Z,9.94
2023-05-08T17:35:01.446Z,9.91
2023-05-08T17:37:32.050Z,9.94
2023-05-08T17:40:02.549Z,9.97
2023-05-08T17:42:33.313Z,9.99
2023-05-08T17:45:04.604Z,9.96
2023-05-08T17:47:34.519Z,9.93
2023-05-08T17:50:06.332Z,9.84
2023-05-08T17:52:37.184Z,9.73
2023-05-08T17:55:09.824Z,9.58
2023-05-08T17:57:40.632Z,9.55
2023-05-08T18:00:15.163Z,9.46
2023-05-08T18:02:45.537Z,9.38
2023-05-08T18:05:15.958Z,9.26
2023-05-08T18:07:46.012Z,9.21
2023-05-08T18:10:17.445Z,9.20
2023-05-08T18:12:48.454Z,9.20
2023-05-08T18:15:18.463Z,9.15
2023-05-08T18:17:52.060Z,9.09
2023-05-08T18:20:23.422Z,8.99
2023-05-08T18:22:54.085Z,8.91
2023-05-08T18:25:23.993Z,8.85
2023-05-08T18:27:54.863Z,8.80
2023-05-08T18:30:25.854Z,8.67
2023-05-08T18:32:57.836Z,8.53
2023-05-08T18:35:28.892Z,8.38
2023-05-08T18:37:59.291Z,8.29
2023-05-08T18:40:32.201Z,8.28
2023-05-08T18:43:05.734Z,8.26
2023-05-08T18:45:40.653Z,8.25
2023-05-08T18:48:11.172Z,8.21
2023-05-08T18:50:41.684Z,8.18
2023-05-08T18:53:14.700Z,8.11
2023-05-08T18:55:45.535Z,7.97
2023-05-08T18:58:17.944Z,7.86
2023-05-08T19:00:48.842Z,7.82
2023-05-08T19:03:21.391Z,7.77
2023-05-08T19:05:55.944Z,7.67
2023-05-08T19:08:26.575Z,7.56
2023-05-08T19:10:57.745Z,7.46
2023-05-08T19:13:28.133Z,7.44
2023-05-08T19:15:58.714Z,7.41
2023-05-08T19:18:29.269Z,7.37
2023-05-08T19:20:59.298Z,7.32
2023-05-08T19:23:29.348Z,7.27
2023-05-08T19:25:59.378Z,7.21
2023-05-08T19:28:30.130Z,7.15
2023-05-08T19:31:01.535Z,7.11
2023-05-08T19:33:31.932Z,7.07
2023-05-08T19:36:02.040Z,7.05
2023-05-08T19:38:32.382Z,7.00
2023-05-08T19:41:02.526Z,6.97
2023-05-08T19:43:33.234Z,6.99
2023-05-08T19:46:03.479Z,7.00
2023-05-08T19:48:33.599Z,7.01
2023-05-08T19:51:08.544Z,6.99
2023-05-08T19:53:40.136Z,6.95
2023-05-08T19:56:11.884Z,6.87
2023-05-08T19:58:41.750Z,6.79
2023-05-08T20:01:12.063Z,6.68
2023-05-08T20:03:42.350Z,6.60
2023-05-08T20:06:13.036Z,6.47
2023-05-08T20:08:44.201Z,6.41
2023-05-08T20:11:14.311Z,6.31
2023-05-08T20:13:44.935Z,6.32
2023-05-08T20:16:14.891Z,6.33
2023-05-08T20:18:52.141Z,6.37
2023-05-08T20:21:22.311Z,6.40
2023-05-08T20:23:52.823Z,6.27
2023-05-08T20:26:23.283Z,6.28
2023-05-08T20:28:53.418Z,6.29
2023-05-08T20:31:25.427Z,6.27
2023-05-08T20:33:55.191Z,6.30
2023-05-08T20:36:25.267Z,6.29
2023-05-08T20:38:55.227Z,6.28
2023-05-08T20:41:25.154Z,6.25
2023-05-08T20:43:55.206Z,6.13
2023-05-08T20:46:25.552Z,6.04
2023-05-08T20:48:55.506Z,6.07
2023-05-08T20:51:25.607Z,6.07
2023-05-08T20:53:55.870Z,6.03
2023-05-08T20:56:26.131Z,5.97
2023-05-08T20:58:56.041Z,5.92
2023-05-08T21:01:26.805Z,5.92
2023-05-08T21:03:56.644Z,5.87
2023-05-08T21:06:26.773Z,5.79
2023-05-08T21:08:57.540Z,5.68
2023-05-08T21:11:28.442Z,5.56
2023-05-08T21:13:58.516Z,5.52
2023-05-08T21:16:29.254Z,5.55
2023-05-08T21:18:59.248Z,5.55
2023-05-08T21:21:29.246Z,5.56
2023-05-08T21:23:59.279Z,5.61
2023-05-08T21:26:30.033Z,5.63
2023-05-08T21:29:02.097Z,5.64
2023-05-08T21:31:32.579Z,5.65
2023-05-08T21:34:02.756Z,5.67
2023-05-08T21:36:34.882Z,5.68
2023-05-08T21:39:04.933Z,5.69
2023-05-08T21:41:34.940Z,5.71
2023-05-08T21:44:10.113Z,5.73
2023-05-08T21:46:40.994Z,5.72
2023-05-08T21:49:12.079Z,5.72
2023-05-08T21:51:42.220Z,5.73
2023-05-08T21:54:12.564Z,5.73
2023-05-08T21:56:42.559Z,5.73
2023-05-08T21:59:12.364Z,5.73
2023-05-08T22:01:42.311Z,5.74
2023-05-08T22:04:13.138Z,5.72
2023-05-08T22:06:44.226Z,5.70
2023-05-08T22:09:15.037Z,5.71
2023-05-08T22:11:45.214Z,5.71
2023-05-08T22:14:15.256Z,5.71
2023-05-08T22:16:45.146Z,5.68
2023-05-08T22:19:15.114Z,5.67
2023-05-08T22:21:44.926Z,5.65
2023-05-08T22:24:15.797Z,5.62
2023-05-08T22:26:45.724Z,5.63
2023-05-08T22:29:16.340Z,5.64
2023-05-08T22:31:47.872Z,5.64
2023-05-08T22:34:18.014Z,5.63
2023-05-08T22:36:48.095Z,5.64
2023-05-08T22:39:18.471Z,5.63
2023-05-08T22:41:48.756Z,5.60
2023-05-08T22:44:19.058Z,5.58
2023-05-08T22:46:49.192Z,5.58
2023-05-08T22:49:19.503Z,5.56
2023-05-08T22:51:50.115Z,5.54
2023-05-08T22:54:20.643Z,5.53
2023-05-08T22:56:50.643Z,5.50
2023-05-08T22:59:21.045Z,5.45
2023-05-08T23:01:50.923Z,5.42
2023-05-08T23:04:21.260Z,5.40
2023-05-08T23:06:51.330Z,5.39
2023-05-08T23:09:22.707Z,5.39
2023-05-08T23:11:52.829Z,5.38
2023-05-08T23:14:22.825Z,5.35
2023-05-08T23:16:52.909Z,5.35
2023-05-08T23:19:22.949Z,5.32
2023-05-08T23:21:52.810Z,5.27
2023-05-08T23:24:23.112Z,5.21
2023-05-08T23:26:53.164Z,5.19
2023-05-08T23:29:23.265Z,5.16
2023-05-08T23:31:53.154Z,5.11
2023-05-08T23:34:23.390Z,5.10
2023-05-08T23:36:53.490Z,5.07
2023-05-08T23:39:23.588Z,5.05
2023-05-08T23:41:54.027Z,5.05
2023-05-08T23:44:24.344Z,5.04
2023-05-08T23:46:54.653Z,5.00
2023-05-08T23:49:25.170Z,4.95
2023-05-08T23:51:55.544Z,4.89
2023-05-08T23:54:26.058Z,4.87
2023-05-08T23:56:56.293Z,4.85
2023-05-08T23:59:26.691Z,4.84
